createdAt,value
2018-09-14T00:01:04.502Z,96375.16
2018-09-14T00:03:34.522Z,96370.27
2018-09-14T00:06:06.867Z,96372.16
2018-09-14T00:08:37.628Z,96373.51
2018-09-14T00:11:07.028Z,96367.91
2018-09-14T00:13:36.388Z,96379.21
2018-09-14T00:16:05.746Z,96380.55
2018-09-14T00:18:35.502Z,96376.20
2018-09-14T00:21:06.211Z,96373.23
2018-09-14T00:23:38.058Z,96368.97
2018-09-14T00:28:44.630Z,96367.36
2018-09-14T00:31:16.119Z,96361.16
2018-09-14T00:33:45.567Z,96361.70
2018-09-14T00:36:14.984Z,96353.31
2018-09-14T00:38:45.049Z,96354.42
2018-09-14T00:41:16.234Z,96362.25
2018-09-14T00:43:45.679Z,96354.44
2018-09-14T00:46:15.031Z,96361.70
2018-09-14T00:48:44.883Z,96358.22
2018-09-14T00:51:14.810Z,96359.28
2018-09-14T00:53:44.175Z,96369.23
2018-09-14T00:56:15.639Z,96366.55
2018-09-14T00:58:44.994Z,96365.43
2018-09-14T01:01:19.430Z,96358.47
2018-09-14T01:03:48.851Z,96360.35
2018-09-14T01:06:18.512Z,96352.52
2018-09-14T01:08:47.932Z,96355.51
2018-09-14T01:11:17.332Z,96354.16
2018-09-14T01:13:46.705Z,96359.24
2018-09-14T01:16:17.668Z,96358.74
2018-09-14T01:18:46.970Z,96362.23
2018-09-14T01:21:16.383Z,96359.82
2018-09-14T01:23:49.272Z,96353.08
2018-09-14T01:26:18.627Z,96350.41
2018-09-14T01:28:48.898Z,96346.62
2018-09-14T01:31:20.807Z,96339.11
2018-09-14T01:33:51.566Z,96341.25
2018-09-14T01:36:20.995Z,96341.52
2018-09-14T01:38:53.310Z,96340.45
2018-09-14T01:41:22.606Z,96338.83
2018-09-14T01:43:51.935Z,96342.07
2018-09-14T01:46:21.272Z,96339.91
2018-09-14T01:48:50.946Z,96335.86
2018-09-14T01:51:20.283Z,96332.91
2018-09-14T01:53:49.645Z,96331.29
2018-09-14T01:56:20.171Z,96328.34
2018-09-14T01:58:49.496Z,96319.72
2018-09-14T02:01:18.830Z,96320.32
2018-09-14T02:03:48.182Z,96323.00
2018-09-14T02:06:18.195Z,96326.25
2018-09-14T02:08:47.511Z,96324.97
2018-09-14T02:11:17.884Z,96324.42
2018-09-14T02:13:51.945Z,96326.84
2018-09-14T02:16:21.345Z,96326.84
2018-09-14T02:18:51.467Z,96328.45
2018-09-14T02:21:20.805Z,96321.73
2018-09-14T02:23:50.099Z,96327.16
2018-09-14T02:26:20.655Z,96320.70
2018-09-14T02:28:49.971Z,96324.97
2018-09-14T02:31:19.668Z,96327.92
2018-09-14T02:33:48.996Z,96327.91
2018-09-14T02:36:18.291Z,96326.83
2018-09-14T02:38:48.179Z,96327.91
2018-09-14T02:41:17.527Z,96326.02
2018-09-14T02:43:47.100Z,96322.52
2018-09-14T02:46:17.587Z,96323.30
2018-09-14T02:48:47.879Z,96325.22
2018-09-14T02:51:17.212Z,96322.53
2018-09-14T02:53:47.515Z,96317.42
2018-09-14T02:56:16.892Z,96323.89
2018-09-14T02:58:47.473Z,96322.59
2018-09-14T03:01:17.283Z,96328.50
2018-09-14T03:03:47.214Z,96327.16
2018-09-14T03:06:16.628Z,96330.61
2018-09-14T03:08:46.472Z,96332.00
2018-09-14T03:11:15.795Z,96331.95
2018-09-14T03:13:45.789Z,96340.34
2018-09-14T03:16:15.201Z,96335.50
2018-09-14T03:18:45.438Z,96341.47
2018-09-14T03:21:15.705Z,96344.66
2018-09-14T03:23:45.314Z,96342.50
2018-09-14T03:26:15.038Z,96346.27
2018-09-14T03:28:45.225Z,96341.16
2018-09-14T03:31:16.152Z,96342.27
2018-09-14T03:33:45.984Z,96336.08
2018-09-14T03:36:15.992Z,96343.84
2018-09-14T03:38:45.347Z,96344.42
2018-09-14T03:41:14.720Z,96340.62
2018-09-14T03:43:45.283Z,96345.50
2018-09-14T03:46:15.162Z,96349.77
2018-09-14T03:48:44.477Z,96343.84
2018-09-14T03:51:13.981Z,96342.77
2018-09-14T03:53:43.954Z,96336.58
2018-09-14T03:56:13.305Z,96345.19
2018-09-14T03:58:42.674Z,96347.07
2018-09-14T04:01:13.993Z,96347.88
2018-09-14T04:03:43.438Z,96347.61
2018-09-14T04:06:12.746Z,96340.61
2018-09-14T04:08:42.862Z,96348.95
2018-09-14T04:11:13.781Z,96343.84
2018-09-14T04:13:43.267Z,96350.03
2018-09-14T04:16:12.594Z,96347.88
2018-09-14T04:18:41.941Z,96344.47
2018-09-14T04:21:11.246Z,96350.35
2018-09-14T04:23:40.647Z,96354.16
2018-09-14T04:26:10.414Z,96346.12
2018-09-14T04:28:39.812Z,96347.70
2018-09-14T04:31:09.114Z,96347.16
2018-09-14T04:33:40.491Z,96347.70
2018-09-14T04:36:10.178Z,96352.23
2018-09-14T04:38:40.672Z,96344.70
2018-09-14T04:41:10.047Z,96343.63
2018-09-14T04:43:40.313Z,96353.84
2018-09-14T04:46:10.483Z,96351.96
2018-09-14T04:48:41.427Z,96356.53
2018-09-14T04:51:11.208Z,96353.34
2018-09-14T04:53:41.821Z,96360.89
2018-09-14T04:56:12.884Z,96360.34
2018-09-14T04:58:42.246Z,96362.49
2018-09-14T05:01:12.162Z,96365.15
2018-09-14T05:03:41.517Z,96362.73
2018-09-14T05:06:10.902Z,96370.80
2018-09-14T05:08:40.287Z,96370.53
2018-09-14T05:11:09.637Z,96369.72
2018-09-14T05:13:39.138Z,96369.72
2018-09-14T05:16:08.923Z,96364.64
2018-09-14T05:18:38.999Z,96367.57
2018-09-14T05:21:08.857Z,96362.73
2018-09-14T05:23:38.418Z,96358.16
2018-09-14T05:26:11.466Z,96359.50
2018-09-14T05:28:41.604Z,96367.07
2018-09-14T05:31:10.962Z,96363.88
2018-09-14T05:33:44.617Z,96367.07
2018-09-14T05:36:15.548Z,96370.84
2018-09-14T05:38:46.546Z,96365.72
2018-09-14T05:41:17.726Z,96375.41
2018-09-14T05:43:47.122Z,96378.94
2018-09-14T05:46:17.033Z,96377.29
2018-09-14T05:48:47.138Z,96385.66
2018-09-14T05:51:16.546Z,96386.47
2018-09-14T05:53:53.814Z,96395.61
2018-09-14T05:56:23.887Z,96392.39
2018-09-14T05:58:53.261Z,96396.16
2018-09-14T06:01:24.107Z,96392.98
2018-09-14T06:03:53.797Z,96398.09
2018-09-14T06:06:23.170Z,96404.81
2018-09-14T06:08:55.372Z,96414.73
2018-09-14T06:11:25.260Z,96411.27
2018-09-14T06:13:56.460Z,96416.09
2018-09-14T06:16:25.855Z,96423.09
2018-09-14T06:18:56.961Z,96431.17
2018-09-14T06:21:27.704Z,96431.44
2018-09-14T06:23:57.931Z,96432.52
2018-09-14T06:26:27.322Z,96428.21
2018-09-14T06:28:57.459Z,96436.01
2018-09-14T06:31:26.824Z,96433.32
2018-09-14T06:33:56.118Z,96425.27
2018-09-14T06:36:31.079Z,96430.34
2018-09-14T06:39:00.403Z,96433.30
2018-09-14T06:41:29.741Z,96433.30
2018-09-14T06:43:59.109Z,96430.35
2018-09-14T06:46:28.480Z,96439.49
2018-09-14T06:48:58.283Z,96433.33
2018-09-14T06:51:29.387Z,96432.23
2018-09-14T06:53:58.709Z,96437.08
2018-09-14T06:56:28.031Z,96440.03
2018-09-14T06:58:58.468Z,96438.66
2018-09-14T07:01:28.547Z,96440.58
2018-09-14T07:03:58.695Z,96439.23
2018-09-14T07:06:28.828Z,96442.16
2018-09-14T07:08:59.819Z,96444.05
2018-09-14T07:11:32.318Z,96442.43
2018-09-14T07:14:33.269Z,96451.33
2018-09-14T07:17:04.541Z,96452.92
2018-09-14T07:19:35.101Z,96449.13
2018-09-14T07:22:04.457Z,96459.34
2018-09-14T07:24:34.997Z,96457.48
2018-09-14T07:27:05.235Z,96454.28
2018-09-14T07:29:36.483Z,96459.91
2018-09-14T07:32:06.231Z,96460.17
2018-09-14T07:34:37.222Z,96469.05
2018-09-14T07:37:07.248Z,96467.95
2018-09-14T07:39:37.286Z,96466.05
2018-09-14T07:42:08.357Z,96457.45
2018-09-14T07:44:38.670Z,96457.98
2018-09-14T07:47:10.011Z,96463.06
2018-09-14T07:49:43.354Z,96466.56
2018-09-14T07:52:14.408Z,96462.80
2018-09-14T07:54:44.816Z,96467.61
2018-09-14T07:57:16.213Z,96473.80
2018-09-14T07:59:47.720Z,96470.30
2018-09-14T08:02:19.603Z,96471.08
2018-09-14T08:04:50.430Z,96478.34
2018-09-14T08:07:21.674Z,96480.77
2018-09-14T08:09:52.991Z,96474.84
2018-09-14T08:12:22.838Z,96475.92
2018-09-14T08:14:52.138Z,96483.72
2018-09-14T08:17:22.435Z,96485.88
2018-09-14T08:19:53.018Z,96487.22
2018-09-14T08:22:22.628Z,96492.61
2018-09-14T08:24:53.446Z,96489.11
2018-09-14T08:27:24.386Z,96494.78
2018-09-14T08:29:54.346Z,96496.38
2018-09-14T08:32:24.493Z,96497.72
2018-09-14T08:34:56.605Z,96500.98
2018-09-14T08:37:26.261Z,96506.62
2018-09-14T08:39:58.163Z,96506.89
2018-09-14T08:42:30.934Z,96503.95
2018-09-14T08:45:01.734Z,96503.16
2018-09-14T08:47:33.186Z,96506.36
2018-09-14T08:50:03.110Z,96504.20
2018-09-14T08:52:33.378Z,96500.44
2018-09-14T08:55:04.910Z,96507.70
2018-09-14T08:57:36.051Z,96515.48
2018-09-14T09:00:05.422Z,96519.52
2018-09-14T09:02:34.874Z,96522.45
2018-09-14T09:05:04.586Z,96523.82
2018-09-14T09:07:34.348Z,96515.18
2018-09-14T09:10:03.644Z,96518.95
2018-09-14T09:12:35.539Z,96512.76
2018-09-14T09:15:05.944Z,96516.77
2018-09-14T09:17:35.790Z,96510.57
2018-09-14T09:20:05.530Z,96506.53
2018-09-14T09:22:35.572Z,96509.73
2018-09-14T09:25:05.206Z,96504.88
2018-09-14T09:27:49.048Z,96504.88
2018-09-14T09:32:59.048Z,96503.75
2018-09-14T09:35:29.355Z,96502.95
2018-09-14T09:38:01.075Z,96499.44
2018-09-14T09:40:30.492Z,96499.66
2018-09-14T09:43:00.639Z,96501.00
2018-09-14T09:45:32.349Z,96499.65
2018-09-14T09:48:02.179Z,96500.13
2018-09-14T09:50:31.494Z,96509.73
2018-09-14T09:53:00.802Z,96502.77
2018-09-14T09:55:30.115Z,96499.54
2018-09-14T09:57:59.485Z,96499.54
2018-09-14T10:00:34.368Z,96501.64
2018-09-14T10:03:10.680Z,96506.14
2018-09-14T10:05:46.496Z,96508.50
2018-09-14T10:08:15.774Z,96506.29
2018-09-14T10:10:45.214Z,96511.69
2018-09-14T10:13:18.564Z,96510.55
2018-09-14T10:15:52.158Z,96501.84
2018-09-14T10:18:21.466Z,96508.95
2018-09-14T10:20:51.815Z,96503.63
2018-09-14T10:23:22.428Z,96502.77
2018-09-14T10:25:51.739Z,96504.64
2018-09-14T10:28:22.919Z,96505.89
2018-09-14T10:30:53.421Z,96503.69
2018-09-14T10:33:24.771Z,96508.55
2018-09-14T10:35:55.834Z,96502.31
2018-09-14T10:38:27.513Z,96499.25
2018-09-14T10:41:02.448Z,96499.67
2018-09-14T10:43:35.991Z,96500.97
2018-09-14T10:46:07.580Z,96504.47
2018-09-14T10:48:37.620Z,96494.16
2018-09-14T10:51:08.397Z,96493.45
2018-09-14T10:53:40.085Z,96496.37
2018-09-14T10:56:09.555Z,96496.19
2018-09-14T10:58:43.803Z,96492.30
2018-09-14T11:01:17.821Z,96490.16
2018-09-14T11:03:47.205Z,96487.03
2018-09-14T11:06:17.418Z,96493.52
2018-09-14T11:08:48.352Z,96494.13
2018-09-14T11:11:21.554Z,96491.39
2018-09-14T11:13:51.927Z,96496.47
2018-09-14T11:16:22.303Z,96497.54
2018-09-14T11:18:56.410Z,96495.80
2018-09-14T11:21:26.402Z,96498.66
2018-09-14T11:24:02.569Z,96496.40
2018-09-14T11:26:32.491Z,96494.91
2018-09-14T11:29:01.857Z,96495.45
2018-09-14T11:31:32.228Z,96492.73
2018-09-14T11:34:02.259Z,96487.60
2018-09-14T11:36:31.587Z,96492.12
2018-09-14T11:39:02.287Z,96485.33
2018-09-14T11:41:31.669Z,96486.84
2018-09-14T11:44:03.916Z,96484.02
2018-09-14T11:46:37.035Z,96484.88
2018-09-14T11:49:06.421Z,96481.98
2018-09-14T11:51:36.023Z,96484.91
2018-09-14T11:54:09.046Z,96478.92
2018-09-14T11:56:39.053Z,96477.82
2018-09-14T11:59:08.411Z,96476.58
2018-09-14T12:01:37.737Z,96479.84
2018-09-14T12:04:11.295Z,96475.11
2018-09-14T12:06:40.688Z,96477.59
2018-09-14T12:09:40.845Z,96471.12
2018-09-14T12:12:12.109Z,96465.27
2018-09-14T12:14:43.199Z,96461.08
2018-09-14T12:17:14.165Z,96463.34
2018-09-14T12:19:47.275Z,96459.05
2018-09-14T12:22:18.023Z,96457.16
2018-09-14T12:24:48.510Z,96458.28
2018-09-14T12:27:29.685Z,96453.86
2018-09-14T12:30:00.118Z,96449.91
2018-09-14T12:32:29.861Z,96441.93
2018-09-14T12:34:59.335Z,96439.44
2018-09-14T12:37:28.993Z,96442.11
2018-09-14T12:40:08.491Z,96432.16
2018-09-14T12:42:39.907Z,96433.00
2018-09-14T12:45:10.704Z,96426.14
2018-09-14T12:47:40.907Z,96431.11
2018-09-14T12:50:11.507Z,96422.34
2018-09-14T12:52:41.584Z,96427.85
2018-09-14T12:55:11.526Z,96430.70
2018-09-14T12:57:41.189Z,96422.73
2018-09-14T13:00:10.531Z,96430.05
2018-09-14T13:02:40.342Z,96425.23
2018-09-14T13:05:10.942Z,96429.43
2018-09-14T13:07:40.491Z,96428.03
2018-09-14T13:10:12.630Z,96424.17
2018-09-14T13:12:42.617Z,96420.45
2018-09-14T13:15:11.946Z,96414.99
2018-09-14T13:17:41.255Z,96413.04
2018-09-14T13:20:13.451Z,96412.01
2018-09-14T13:22:42.732Z,96408.54
2018-09-14T13:25:12.096Z,96402.98
2018-09-14T13:27:43.858Z,96407.05
2018-09-14T13:30:14.895Z,96413.36
2018-09-14T13:32:46.558Z,96407.02
2018-09-14T13:35:17.010Z,96416.08
2018-09-14T13:37:46.335Z,96414.65
2018-09-14T13:40:15.875Z,96413.50
2018-09-14T13:42:46.599Z,96417.66
2018-09-14T13:45:18.410Z,96412.02
2018-09-14T13:47:48.902Z,96408.28
2018-09-14T13:50:19.926Z,96405.77
2018-09-14T13:52:49.469Z,96402.14
2018-09-14T13:55:21.391Z,96402.24
2018-09-14T13:57:55.623Z,96399.00
2018-09-14T14:00:25.683Z,96399.98
2018-09-14T14:02:55.228Z,96395.61
2018-09-14T14:05:25.695Z,96392.02
2018-09-14T14:07:59.435Z,96389.94
2018-09-14T14:10:28.834Z,96393.00
2018-09-14T14:12:59.066Z,96384.81
2018-09-14T14:15:31.868Z,96386.66
2018-09-14T14:18:02.263Z,96386.66
2018-09-14T14:20:34.635Z,96384.39
2018-09-14T14:23:04.578Z,96380.74
2018-09-14T14:25:35.155Z,96373.30
2018-09-14T14:28:05.480Z,96380.08
2018-09-14T14:30:38.196Z,96373.97
2018-09-14T14:33:08.440Z,96381.80
2018-09-14T14:35:39.819Z,96370.89
2018-09-14T14:38:09.484Z,96370.59
2018-09-14T14:40:39.443Z,96373.19
2018-09-14T14:43:08.778Z,96368.81
2018-09-14T14:45:38.368Z,96371.74
2018-09-14T14:48:07.688Z,96364.55
2018-09-14T14:50:39.884Z,96363.30
2018-09-14T14:53:09.299Z,96362.62
2018-09-14T14:55:39.471Z,96366.21
2018-09-14T14:58:09.723Z,96367.55
2018-09-14T15:00:42.168Z,96361.22
2018-09-14T15:03:11.446Z,96361.16
2018-09-14T15:05:42.156Z,96363.36
2018-09-14T15:08:13.266Z,96357.81
2018-09-14T15:10:43.291Z,96352.28
2018-09-14T15:13:12.655Z,96349.56
2018-09-14T15:18:17.711Z,96348.52
2018-09-14T15:20:47.548Z,96344.75
2018-09-14T15:23:18.596Z,96340.98
2018-09-14T15:25:49.635Z,96340.18
2018-09-14T15:28:21.334Z,96346.15
2018-09-14T15:30:50.672Z,96340.94
2018-09-14T15:33:23.877Z,96345.72
2018-09-14T15:35:53.202Z,96340.75
2018-09-14T15:38:23.694Z,96339.05
2018-09-14T15:40:53.413Z,96341.43
2018-09-14T15:43:25.544Z,96342.48
2018-09-14T15:45:55.503Z,96344.04
2018-09-14T15:48:27.351Z,96343.03
2018-09-14T15:50:56.691Z,96335.59
2018-09-14T15:53:29.695Z,96337.45
2018-09-14T15:55:59.035Z,96331.83
2018-09-14T15:58:28.461Z,96334.08
2018-09-14T16:01:00.971Z,96326.33
2018-09-14T16:03:30.286Z,96326.08
2018-09-14T16:06:00.907Z,96326.63
2018-09-14T16:08:30.839Z,96330.19
2018-09-14T16:11:00.183Z,96328.72
2018-09-14T16:13:31.457Z,96327.83
2018-09-14T16:16:00.767Z,96319.37
2018-09-14T16:18:31.039Z,96321.75
2018-09-14T16:21:06.275Z,96314.05
2018-09-14T16:23:36.606Z,96321.27
2018-09-14T16:26:06.322Z,96322.98
2018-09-14T16:28:35.616Z,96324.70
2018-09-14T16:31:06.571Z,96323.26
2018-09-14T16:33:37.447Z,96325.91
2018-09-14T16:36:07.098Z,96325.00
2018-09-14T16:38:36.400Z,96324.38
2018-09-14T16:41:05.740Z,96328.81
2018-09-14T16:43:41.532Z,96329.90
2018-09-14T16:46:11.826Z,96326.41
2018-09-14T16:48:44.175Z,96328.77
2018-09-14T16:51:16.474Z,96325.66
2018-09-14T16:53:47.723Z,96326.91
2018-09-14T16:56:17.777Z,96326.77
2018-09-14T16:58:49.054Z,96335.60
2018-09-14T17:01:21.706Z,96328.42
2018-09-14T17:03:52.678Z,96336.38
2018-09-14T17:06:24.188Z,96333.80
2018-09-14T17:08:54.207Z,96328.53
2018-09-14T17:12:26.396Z,96334.32
2018-09-14T17:14:57.370Z,96336.06
2018-09-14T17:17:27.059Z,96333.41
2018-09-14T17:19:57.362Z,96325.91
2018-09-14T17:22:27.328Z,96336.77
2018-09-14T17:24:59.616Z,96339.52
2018-09-14T17:27:29.351Z,96338.00
2018-09-14T17:30:00.475Z,96339.66
2018-09-14T17:32:30.428Z,96344.89
2018-09-14T17:35:01.336Z,96344.77
2018-09-14T17:37:32.161Z,96345.14
2018-09-14T17:40:03.359Z,96351.88
2018-09-14T17:42:34.358Z,96347.33
2018-09-14T17:45:07.229Z,96348.41
2018-09-14T17:48:01.946Z,96350.29
2018-09-14T17:50:32.358Z,96350.85
2018-09-14T17:53:08.167Z,96349.55
2018-09-14T17:55:38.449Z,96353.89
2018-09-14T17:58:10.275Z,96346.94
2018-09-14T18:00:39.962Z,96338.07
2018-09-14T18:03:10.798Z,96342.44
2018-09-14T18:05:40.399Z,96349.20
2018-09-14T18:08:13.823Z,96346.56
2018-09-14T18:10:44.392Z,96346.84
2018-09-14T18:13:19.407Z,96349.02
2018-09-14T18:15:49.412Z,96343.95
2018-09-14T18:18:22.628Z,96348.75
2018-09-14T18:20:58.287Z,96352.80
2018-09-14T18:23:28.626Z,96351.98
2018-09-14T18:26:04.691Z,96358.23
2018-09-14T18:28:34.109Z,96360.93
2018-09-14T18:31:05.356Z,96354.22
2018-09-14T18:33:43.051Z,96366.67
2018-09-14T18:36:13.993Z,96375.07
2018-09-14T18:38:48.082Z,96374.56
2018-09-14T18:41:18.851Z,96369.73
2018-09-14T18:43:48.479Z,96378.34
2018-09-14T18:46:19.416Z,96376.99
2018-09-14T18:48:51.529Z,96372.69
2018-09-14T18:51:24.082Z,96370.27
2018-09-14T18:54:00.520Z,96367.63
2018-09-14T18:56:31.246Z,96381.91
2018-09-14T18:59:05.622Z,96377.06
2018-09-14T19:01:36.387Z,96381.41
2018-09-14T19:04:12.372Z,96377.33
2018-09-14T19:06:42.054Z,96369.30
2018-09-14T19:09:19.799Z,96373.87
2018-09-14T19:11:52.338Z,96377.91
2018-09-14T19:14:21.751Z,96375.49
2018-09-14T19:16:53.620Z,96374.42
2018-09-14T19:19:30.692Z,96381.73
2018-09-14T19:22:02.381Z,96382.53
2018-09-14T19:24:36.757Z,96382.00
2018-09-14T19:27:08.629Z,96373.71
2018-09-14T19:29:39.923Z,96378.28
2018-09-14T19:32:16.375Z,96376.14
2018-09-14T19:34:50.354Z,96372.10
2018-09-14T19:37:21.483Z,96378.28
2018-09-14T19:39:54.822Z,96380.66
2018-09-14T19:42:26.218Z,96382.77
2018-09-14T19:44:56.767Z,96381.09
2018-09-14T19:47:27.322Z,96380.22
2018-09-14T19:49:56.932Z,96383.14
2018-09-14T19:52:27.427Z,96380.98
2018-09-14T19:54:58.402Z,96376.38
2018-09-14T19:57:29.014Z,96377.43
2018-09-14T20:00:00.638Z,96377.66
2018-09-14T20:02:33.391Z,96370.91
2018-09-14T20:05:05.408Z,96377.89
2018-09-14T20:07:37.564Z,96379.98
2018-09-14T20:10:08.194Z,96374.24
2018-09-14T20:12:38.966Z,96377.41
2018-09-14T20:15:10.610Z,96370.88
2018-09-14T20:17:42.740Z,96374.34
2018-09-14T20:20:16.856Z,96378.61
2018-09-14T20:22:46.131Z,96378.33
2018-09-14T20:25:15.926Z,96386.95
2018-09-14T20:27:46.191Z,96379.91
2018-09-14T20:30:18.012Z,96384.98
2018-09-14T20:32:49.118Z,96381.18
2018-09-14T20:35:22.613Z,96386.03
2018-09-14T20:37:59.684Z,96383.05
2018-09-14T20:40:30.995Z,96382.19
2018-09-14T20:43:03.596Z,96385.94
2018-09-14T20:45:33.232Z,96381.30
2018-09-14T20:48:05.219Z,96385.61
2018-09-14T20:50:36.335Z,96387.48
2018-09-14T20:53:06.439Z,96378.56
2018-09-14T20:55:37.020Z,96379.04
2018-09-14T20:58:06.564Z,96382.80
2018-09-14T21:00:36.492Z,96377.15
2018-09-14T21:03:12.330Z,96378.23
2018-09-14T21:05:42.853Z,96377.74
2018-09-14T21:15:27.403Z,96394.48
2018-09-14T21:18:37.268Z,96386.94
2018-09-14T21:21:10.314Z,96388.55
2018-09-14T21:23:40.061Z,96383.68
2018-09-14T21:26:10.851Z,96386.33
2018-09-14T21:28:40.655Z,96387.39
2018-09-14T21:31:10.741Z,96384.94
2018-09-14T21:33:40.755Z,96381.68
2018-09-14T21:36:10.257Z,96376.23
2018-09-14T21:38:45.492Z,96387.55
2018-09-14T21:41:18.331Z,96387.01
2018-09-14T21:43:55.292Z,96384.58
2018-09-14T21:46:26.543Z,96385.67
2018-09-14T21:48:59.192Z,96387.27
2018-09-14T21:51:31.533Z,96386.20
2018-09-14T21:54:01.476Z,96387.88
2018-09-14T21:56:32.674Z,96388.45
2018-09-14T21:59:03.282Z,96389.27
2018-09-14T22:01:33.543Z,96381.72
2018-09-14T22:04:05.358Z,96384.42
2018-09-14T22:06:37.487Z,96386.27
2018-09-14T22:09:11.888Z,96383.31
2018-09-14T22:11:42.589Z,96381.97
2018-09-14T22:14:28.111Z,96382.44
2018-09-14T22:16:59.813Z,96384.59
2018-09-14T22:19:30.408Z,96382.17
2018-09-14T22:22:04.382Z,96378.39
2018-09-14T22:24:33.874Z,96380.83
2018-09-14T22:27:03.285Z,96380.33
2018-09-14T22:29:33.875Z,96377.39
2018-09-14T22:32:07.308Z,96389.81
2018-09-14T22:34:36.663Z,96388.53
2018-09-14T22:37:07.245Z,96385.34
2018-09-14T22:39:37.738Z,96391.61
2018-09-14T22:42:07.040Z,96392.49
2018-09-14T22:44:36.384Z,96397.11
2018-09-14T22:47:06.709Z,96389.34
2018-09-14T22:49:36.004Z,96393.96
2018-09-14T22:52:07.408Z,96394.55
2018-09-14T22:54:36.787Z,96384.09
2018-09-14T22:57:06.093Z,96387.91
2018-09-14T22:59:35.403Z,96393.31
2018-09-14T23:02:04.742Z,96385.03
2018-09-14T23:04:34.261Z,96384.03
2018-09-14T23:07:04.720Z,96381.67
2018-09-14T23:09:35.718Z,96385.52
2018-09-14T23:12:05.937Z,96388.53
2018-09-14T23:14:35.573Z,96386.64
2018-09-14T23:17:06.107Z,96396.37
2018-09-14T23:19:37.010Z,96392.61
2018-09-14T23:22:29.865Z,96392.62
2018-09-14T23:25:11.271Z,96405.31
2018-09-14T23:27:55.702Z,96409.08
2018-09-14T23:30:42.374Z,96412.31
2018-09-14T23:33:22.895Z,96409.36
2018-09-14T23:35:52.216Z,96411.28
2018-09-14T23:38:23.262Z,96415.86
2018-09-14T23:40:53.562Z,96416.67
2018-09-14T23:43:23.306Z,96422.87
2018-09-14T23:45:53.915Z,96417.25
2018-09-14T23:48:24.058Z,96422.37
2018-09-14T23:50:53.872Z,96419.95
2018-09-14T23:53:23.594Z,96419.41
2018-09-14T23:55:53.738Z,96423.45
2018-09-14T23:58:25.366Z,96419.69
